METAR Data
IDs: Format: Raw Decoded Include TAF

Data at: 2354 UTC 24 Apr 2019

METAR for:KFSW (Fort Madison Muni, IA, US)
Text:KFSW 242335Z AUTO 11005KT 10SM SCT030 15/10 A2985 RMK AO2
Temperature: 15.0°C ( 59°F)
Dewpoint: 10.0°C ( 50°F) [RH = 72%]
Pressure (altimeter):29.85 inches Hg (1010.9 mb)
Winds:from the ESE (110 degrees) at 6 MPH (5 knots; 2.6 m/s)
Visibility:10 or more sm (16+ km)
Ceiling:at least 12,000 feet AGL
Clouds: scattered clouds at 3000 feet AGL
QC Flag:automated observation with no human augmentation